createdAt,value
2023-04-17T00:04:10.742Z,28.83
2023-04-17T00:09:13.941Z,27.92
2023-04-17T00:14:18.200Z,30.85
2023-04-17T00:19:20.896Z,28.85
2023-04-17T00:24:23.575Z,29.80
2023-04-17T00:29:27.647Z,30.13
2023-04-17T00:34:30.441Z,28.90
2023-04-17T00:39:35.268Z,30.30
2023-04-17T00:44:39.350Z,30.75
2023-04-17T00:49:42.231Z,29.88
2023-04-17T00:54:45.087Z,30.95
2023-04-17T00:59:49.538Z,30.25
2023-04-17T01:04:52.270Z,29.52
2023-04-17T01:09:55.332Z,30.77
2023-04-17T01:14:59.383Z,30.83
2023-04-17T01:20:06.219Z,31.15
2023-04-17T01:25:10.740Z,32.50
2023-04-17T01:30:14.598Z,31.50
2023-04-17T01:35:17.445Z,34.42
2023-04-17T01:40:21.660Z,33.90
2023-04-17T01:45:25.375Z,34.97
2023-04-17T01:50:28.674Z,35.45
2023-04-17T01:55:32.656Z,33.50
2023-04-17T02:00:37.289Z,36.75
2023-04-17T02:05:39.881Z,37.85
2023-04-17T02:10:44.474Z,38.47
2023-04-17T02:15:47.153Z,38.70
2023-04-17T02:20:51.817Z,38.97
2023-04-17T02:25:56.124Z,40.25
2023-04-17T02:30:58.836Z,39.90
2023-04-17T02:36:01.546Z,40.87
2023-04-17T02:41:06.352Z,41.63
2023-04-17T02:46:10.508Z,40.08
2023-04-17T02:51:13.280Z,40.85
2023-04-17T02:56:17.583Z,41.37
2023-04-17T03:01:21.544Z,43.35
2023-04-17T03:06:24.910Z,46.95
2023-04-17T03:11:29.332Z,44.22
2023-04-17T03:16:32.024Z,44.85
2023-04-17T03:21:34.883Z,43.40
2023-04-17T03:26:40.912Z,45.57
2023-04-17T03:31:43.555Z,45.38
2023-04-17T03:36:46.654Z,47.50
2023-04-17T03:41:50.758Z,45.08
2023-04-17T03:46:53.576Z,46.88
2023-04-17T03:51:57.468Z,46.75
2023-04-17T03:57:01.505Z,43.75
2023-04-17T04:02:04.331Z,44.40
2023-04-17T04:07:07.122Z,46.70
2023-04-17T04:12:11.571Z,49.07
2023-04-17T04:17:14.236Z,45.75
2023-04-17T04:22:18.558Z,46.63
2023-04-17T04:27:23.090Z,47.17
2023-04-17T04:32:27.948Z,50.40
2023-04-17T04:37:31.800Z,49.30
2023-04-17T04:42:35.816Z,46.17
2023-04-17T04:47:41.952Z,49.08
2023-04-17T04:52:44.705Z,48.15
2023-04-17T04:57:53.472Z,47.93
2023-04-17T05:02:56.407Z,47.92
2023-04-17T05:07:59.280Z,46.50
2023-04-17T05:13:04.388Z,43.93
2023-04-17T05:18:07.144Z,47.30
2023-04-17T05:23:11.056Z,46.30
2023-04-17T05:28:16.777Z,48.85
2023-04-17T05:33:19.890Z,46.75
2023-04-17T05:38:23.684Z,47.43
2023-04-17T05:43:27.699Z,49.03
2023-04-17T05:48:30.522Z,46.65
2023-04-17T05:53:33.255Z,44.63
2023-04-17T05:58:37.356Z,44.43
2023-04-17T06:03:40.154Z,46.80
2023-04-17T06:08:44.502Z,43.20
2023-04-17T06:13:48.817Z,43.95
2023-04-17T06:18:51.557Z,46.00
2023-04-17T06:23:54.217Z,46.30
2023-04-17T06:28:58.414Z,45.27
2023-04-17T06:34:01.140Z,45.72
2023-04-17T06:39:03.884Z,44.47
2023-04-17T06:44:08.177Z,42.67
2023-04-17T06:49:11.042Z,40.70
2023-04-17T06:54:14.084Z,43.00
2023-04-17T06:59:18.282Z,39.70
2023-04-17T07:04:21.736Z,38.47
2023-04-17T07:14:33.547Z,39.00
2023-04-17T07:19:36.252Z,39.10
2023-04-17T07:24:38.991Z,36.97
2023-04-17T07:29:44.234Z,37.10
2023-04-17T07:34:47.576Z,34.90
2023-04-17T07:44:55.227Z,36.17
2023-04-17T07:50:16.060Z,34.17
2023-04-17T07:55:18.809Z,34.47
2023-04-17T08:00:23.484Z,33.20
2023-04-17T08:05:26.325Z,33.65
2023-04-17T08:10:29.427Z,31.35
2023-04-17T08:15:33.589Z,28.90
2023-04-17T08:20:36.727Z,28.48
2023-04-17T08:25:39.362Z,28.27
2023-04-17T08:30:43.402Z,26.98
2023-04-17T08:35:46.588Z,26.58
2023-04-17T08:40:52.286Z,26.50
2023-04-17T08:45:56.905Z,25.25
2023-04-17T08:50:59.622Z,26.65
2023-04-17T08:56:06.866Z,24.35
2023-04-17T09:01:15.827Z,23.00
2023-04-17T09:06:19.222Z,23.83
2023-04-17T09:11:21.959Z,22.30
2023-04-17T09:16:26.064Z,26.33
2023-04-17T09:21:29.944Z,23.48
2023-04-17T09:26:34.146Z,25.20
2023-04-17T09:31:40.576Z,23.58
2023-04-17T09:36:44.253Z,21.65
2023-04-17T09:41:48.127Z,21.17
2023-04-17T09:46:54.056Z,20.67
2023-04-17T09:51:58.711Z,20.83
2023-04-17T09:57:03.873Z,20.83
2023-04-17T10:02:11.633Z,18.08
2023-04-17T10:07:16.671Z,16.95
2023-04-17T10:12:21.791Z,17.50
2023-04-17T10:17:28.606Z,17.00
2023-04-17T10:22:34.798Z,17.80
2023-04-17T10:27:45.426Z,16.70
2023-04-17T10:33:36.222Z,15.98
2023-04-17T10:38:38.767Z,16.95
2023-04-17T10:43:43.315Z,16.27
2023-04-17T10:48:52.586Z,16.40
2023-04-17T10:53:57.789Z,14.98
2023-04-17T10:59:02.446Z,15.68
2023-04-17T11:04:07.239Z,15.35
2023-04-17T11:09:12.262Z,16.55
2023-04-17T11:14:17.716Z,13.25
2023-04-17T11:19:23.576Z,13.55
2023-04-17T11:24:26.969Z,13.27
2023-04-17T11:29:32.093Z,13.10
2023-04-17T11:34:38.194Z,13.52
2023-04-17T11:39:44.150Z,13.05
2023-04-17T11:44:47.038Z,12.68
2023-04-17T11:49:52.576Z,12.07
2023-04-17T11:54:59.004Z,12.25
2023-04-17T12:00:27.506Z,11.20
2023-04-17T12:05:32.302Z,12.73
2023-04-17T12:10:39.815Z,11.02
2023-04-17T12:15:42.730Z,10.85
2023-04-17T12:20:47.556Z,12.23
2023-04-17T12:25:50.275Z,13.23
2023-04-17T12:36:18.303Z,13.60
2023-04-17T12:41:21.891Z,13.30
2023-04-17T12:46:24.808Z,12.35
2023-04-17T12:51:29.380Z,10.95
2023-04-17T12:56:32.035Z,12.50
2023-04-17T13:01:34.821Z,11.98
2023-04-17T13:11:42.888Z,11.52
2023-04-17T13:16:46.211Z,10.68
2023-04-17T13:21:51.756Z,10.35
2023-04-17T13:26:59.782Z,10.10
2023-04-17T13:32:02.553Z,10.65
2023-04-17T13:37:07.293Z,10.65
2023-04-17T13:42:10.401Z,9.77
2023-04-17T13:47:17.534Z,9.75
2023-04-17T13:52:25.876Z,8.52
2023-04-17T13:57:54.296Z,9.27
2023-04-17T14:03:00.211Z,9.07
2023-04-17T14:08:04.519Z,10.02
2023-04-17T14:13:07.484Z,10.02
2023-04-17T14:18:17.411Z,10.60
2023-04-17T14:23:29.871Z,9.55
2023-04-17T14:28:45.566Z,9.03
2023-04-17T14:33:58.728Z,8.75
2023-04-17T14:39:05.655Z,8.90
2023-04-17T14:44:08.970Z,9.00
2023-04-17T14:49:19.440Z,8.63
2023-04-17T14:54:28.374Z,9.80
2023-04-17T14:59:31.115Z,9.15
2023-04-17T15:04:37.128Z,9.07
2023-04-17T15:09:46.429Z,8.75
2023-04-17T15:14:51.013Z,8.80
2023-04-17T15:19:55.759Z,8.65
2023-04-17T15:24:59.860Z,9.20
2023-04-17T15:30:05.006Z,8.05
2023-04-17T15:35:08.354Z,7.50
2023-04-17T15:40:13.249Z,7.35
2023-04-17T15:45:21.174Z,7.05
2023-04-17T15:50:25.962Z,6.60
2023-04-17T15:55:30.188Z,7.40
2023-04-17T16:00:34.069Z,6.32
2023-04-17T16:05:36.875Z,6.97
2023-04-17T16:10:40.892Z,6.95
2023-04-17T16:15:43.655Z,6.90
2023-04-17T16:25:51.317Z,6.30
2023-04-17T16:30:54.046Z,7.32
2023-04-17T16:41:02.000Z,6.47
2023-04-17T16:46:14.362Z,6.82
2023-04-17T16:51:25.056Z,6.15
2023-04-17T16:56:29.069Z,6.40
2023-04-17T17:01:33.222Z,6.65
2023-04-17T17:06:39.105Z,5.53
2023-04-17T17:11:43.404Z,6.63
2023-04-17T17:16:50.090Z,5.93
2023-04-17T17:21:55.685Z,7.15
2023-04-17T17:26:59.681Z,7.22
2023-04-17T17:32:06.092Z,6.95
2023-04-17T17:37:09.160Z,6.43
2023-04-17T17:42:36.367Z,7.20
2023-04-17T17:47:39.924Z,7.15
2023-04-17T17:52:42.730Z,6.90
2023-04-17T17:57:49.701Z,6.55
2023-04-17T18:02:53.048Z,6.53
2023-04-17T18:07:55.911Z,6.57
2023-04-17T18:12:59.990Z,6.72
2023-04-17T18:18:03.359Z,6.60
2023-04-17T18:23:07.274Z,6.05
2023-04-17T18:28:14.081Z,6.93
2023-04-17T18:33:17.309Z,6.65
2023-04-17T18:43:27.479Z,6.35
2023-04-17T18:48:30.166Z,7.75
2023-04-17T18:53:33.671Z,8.30
2023-04-17T18:58:40.769Z,8.07
2023-04-17T19:03:43.539Z,8.02
2023-04-17T19:08:46.280Z,9.18
2023-04-17T19:13:50.454Z,9.80
2023-04-17T19:18:53.212Z,8.95
2023-04-17T19:23:56.307Z,9.00
2023-04-17T19:29:03.076Z,10.57
2023-04-17T19:34:06.967Z,10.07
2023-04-17T19:39:09.730Z,9.18
2023-04-17T19:44:14.342Z,9.75
2023-04-17T19:49:17.107Z,9.73
2023-04-17T19:54:19.967Z,9.20
2023-04-17T19:59:24.621Z,9.65
2023-04-17T20:04:27.560Z,9.07
2023-04-17T20:09:31.648Z,10.82
2023-04-17T20:14:36.349Z,11.25
2023-04-17T20:19:39.025Z,11.30
2023-04-17T20:24:41.768Z,12.23
2023-04-17T20:29:46.254Z,12.27
2023-04-17T20:34:49.169Z,11.57
2023-04-17T20:39:52.903Z,12.55
2023-04-17T20:44:57.193Z,13.40
2023-04-17T20:50:04.114Z,13.45
2023-04-17T20:55:10.224Z,13.50
2023-04-17T21:00:15.883Z,13.88
2023-04-17T21:05:19.292Z,14.18
2023-04-17T21:15:25.932Z,14.23
2023-04-17T21:20:28.778Z,14.95
2023-04-17T21:25:31.502Z,15.88
2023-04-17T21:30:37.063Z,14.93
2023-04-17T21:35:40.926Z,13.57
2023-04-17T21:45:51.792Z,13.85
2023-04-17T21:50:56.659Z,12.25
2023-04-17T21:55:59.496Z,12.52
2023-04-17T22:01:04.571Z,10.07
2023-04-17T22:06:07.811Z,10.75
2023-04-17T22:11:10.613Z,10.15
2023-04-17T22:16:14.636Z,9.33
2023-04-17T22:21:35.422Z,9.40
2023-04-17T22:26:38.091Z,8.88
2023-04-17T22:31:42.242Z,9.33
2023-04-17T22:36:44.896Z,8.68
2023-04-17T22:41:47.568Z,9.40
2023-04-17T22:46:51.792Z,9.63
2023-04-17T22:51:54.759Z,10.18
2023-04-17T22:56:57.625Z,9.98
2023-04-17T23:02:04.378Z,9.57
2023-04-17T23:07:11.608Z,9.73
2023-04-17T23:12:14.188Z,10.13
2023-04-17T23:17:19.605Z,10.47
2023-04-17T23:22:22.503Z,9.98
2023-04-17T23:27:25.885Z,9.80
2023-04-17T23:32:32.285Z,9.98
2023-04-17T23:37:35.799Z,9.57
2023-04-17T23:42:38.765Z,10.63
2023-04-17T23:47:44.421Z,9.25
2023-04-17T23:52:47.520Z,9.32
2023-04-17T23:58:11.462Z,10.10
